Terminal Aerodrome Forecast
Issued by NWS Grand Rapids, MI

Current Version | Previous Version | Text Only | Print | Product List | Glossary On
Versions: 1 2 3 4 5 6 7 8 9 10 11 12 13 14
000
FTUS43 KGRR 220427 AAC
TAFGRR
TAF AMD
KGRR 220427Z 2204/2224 20007KT P6SM BKN050
     FM220900 22012KT P6SM OVC035
     FM221300 25013G23KT P6SM BKN015
     FM221900 30015G25KT P6SM BKN040=

USA.gov is the U.S. government's official web portal to all federal, state and local government web resources and services.